sensor_id;sensor_type;location;lat;lon;timestamp;temperature;humidity
74537;SHT31;63013;51.104;-115.370;2023-02-28T00:01:25;21.99;30.70
74537;SHT31;63013;51.104;-115.370;2023-02-28T00:03:52;21.96;30.71
74537;SHT31;63013;51.104;-115.370;2023-02-28T00:06:19;21.95;30.74
74537;SHT31;63013;51.104;-115.370;2023-02-28T00:08:46;21.92;30.77
74537;SHT31;63013;51.104;-115.370;2023-02-28T00:11:14;21.90;30.80
74537;SHT31;63013;51.104;-115.370;2023-02-28T00:13:44;21.88;30.82
74537;SHT31;63013;51.104;-115.370;2023-02-28T00:16:14;21.85;30.86
74537;SHT31;63013;51.104;-115.370;2023-02-28T00:18:45;21.82;30.90
74537;SHT31;63013;51.104;-115.370;2023-02-28T00:21:13;21.79;30.90
74537;SHT31;63013;51.104;-115.370;2023-02-28T00:23:40;21.76;30.98
74537;SHT31;63013;51.104;-115.370;2023-02-28T00:26:08;21.74;31.03
74537;SHT31;63013;51.104;-115.370;2023-02-28T00:28:35;21.72;31.14
74537;SHT31;63013;51.104;-115.370;2023-02-28T00:31:02;21.69;31.25
74537;SHT31;63013;51.104;-115.370;2023-02-28T00:33:30;21.67;31.29
74537;SHT31;63013;51.104;-115.370;2023-02-28T00:36:04;21.63;31.32
74537;SHT31;63013;51.104;-115.370;2023-02-28T00:38:34;21.61;31.36
74537;SHT31;63013;51.104;-115.370;2023-02-28T00:41:03;21.59;31.39
74537;SHT31;63013;51.104;-115.370;2023-02-28T00:43:31;21.56;31.40
74537;SHT31;63013;51.104;-115.370;2023-02-28T00:45:59;21.54;31.48
74537;SHT31;63013;51.104;-115.370;2023-02-28T00:48:27;21.52;31.50
74537;SHT31;63013;51.104;-115.370;2023-02-28T00:50:54;21.50;31.52
74537;SHT31;63013;51.104;-115.370;2023-02-28T00:53:21;21.49;31.56
74537;SHT31;63013;51.104;-115.370;2023-02-28T00:55:49;21.47;31.61
74537;SHT31;63013;51.104;-115.370;2023-02-28T00:58:16;21.44;31.66
74537;SHT31;63013;51.104;-115.370;2023-02-28T01:00:43;21.42;31.75
74537;SHT31;63013;51.104;-115.370;2023-02-28T01:03:15;21.40;31.80
74537;SHT31;63013;51.104;-115.370;2023-02-28T01:05:44;21.38;31.82
74537;SHT31;63013;51.104;-115.370;2023-02-28T01:08:12;21.36;31.97
74537;SHT31;63013;51.104;-115.370;2023-02-28T01:10:40;21.34;32.09
74537;SHT31;63013;51.104;-115.370;2023-02-28T01:13:07;21.32;32.11
74537;SHT31;63013;51.104;-115.370;2023-02-28T01:15:34;21.31;32.10
74537;SHT31;63013;51.104;-115.370;2023-02-28T01:18:01;21.29;32.10
74537;SHT31;63013;51.104;-115.370;2023-02-28T01:20:29;21.27;32.10
74537;SHT31;63013;51.104;-115.370;2023-02-28T01:22:56;21.25;32.19
74537;SHT31;63013;51.104;-115.370;2023-02-28T01:25:25;21.23;32.34
74537;SHT31;63013;51.104;-115.370;2023-02-28T01:27:52;21.22;32.46
74537;SHT31;63013;51.104;-115.370;2023-02-28T01:30:19;21.20;32.45
74537;SHT31;63013;51.104;-115.370;2023-02-28T01:32:46;21.19;32.47
74537;SHT31;63013;51.104;-115.370;2023-02-28T01:35:15;21.18;32.45
74537;SHT31;63013;51.104;-115.370;2023-02-28T01:37:42;21.17;32.46
74537;SHT31;63013;51.104;-115.370;2023-02-28T01:40:09;21.14;32.48
74537;SHT31;63013;51.104;-115.370;2023-02-28T01:42:37;21.13;32.49
74537;SHT31;63013;51.104;-115.370;2023-02-28T01:48:04;21.08;32.41
74537;SHT31;63013;51.104;-115.370;2023-02-28T01:50:36;21.06;32.41
74537;SHT31;63013;51.104;-115.370;2023-02-28T01:53:12;21.05;32.40
74537;SHT31;63013;51.104;-115.370;2023-02-28T01:55:46;21.02;32.40
74537;SHT31;63013;51.104;-115.370;2023-02-28T01:58:17;20.99;32.40
74537;SHT31;63013;51.104;-115.370;2023-02-28T02:00:44;20.97;32.40
74537;SHT31;63013;51.104;-115.370;2023-02-28T02:03:16;20.96;32.46
74537;SHT31;63013;51.104;-115.370;2023-02-28T02:05:46;20.92;32.58
74537;SHT31;63013;51.104;-115.370;2023-02-28T02:08:15;20.91;32.63
74537;SHT31;63013;51.104;-115.370;2023-02-28T02:10:50;20.88;32.61
74537;SHT31;63013;51.104;-115.370;2023-02-28T02:13:34;20.86;32.58
74537;SHT31;63013;51.104;-115.370;2023-02-28T02:19:33;20.80;32.50
74537;SHT31;63013;51.104;-115.370;2023-02-28T02:22:37;20.77;32.44
74537;SHT31;63013;51.104;-115.370;2023-02-28T02:25:32;20.74;32.42
74537;SHT31;63013;51.104;-115.370;2023-02-28T02:28:14;20.72;32.41
74537;SHT31;63013;51.104;-115.370;2023-02-28T02:37:28;20.64;32.32
74537;SHT31;63013;51.104;-115.370;2023-02-28T02:40:13;20.60;32.30
74537;SHT31;63013;51.104;-115.370;2023-02-28T02:45:45;20.56;32.24
74537;SHT31;63013;51.104;-115.370;2023-02-28T02:48:27;20.55;32.16
74537;SHT31;63013;51.104;-115.370;2023-02-28T02:51:00;20.54;32.09
74537;SHT31;63013;51.104;-115.370;2023-02-28T02:53:41;20.53;32.00
74537;SHT31;63013;51.104;-115.370;2023-02-28T02:56:22;20.53;31.91
74537;SHT31;63013;51.104;-115.370;2023-02-28T02:58:58;20.56;31.87
74537;SHT31;63013;51.104;-115.370;2023-02-28T03:01:34;20.56;31.80
74537;SHT31;63013;51.104;-115.370;2023-02-28T03:04:08;20.58;31.74
74537;SHT31;63013;51.104;-115.370;2023-02-28T03:06:44;20.58;31.68
74537;SHT31;63013;51.104;-115.370;2023-02-28T03:09:11;20.59;31.67
74537;SHT31;63013;51.104;-115.370;2023-02-28T03:11:38;20.59;31.61
74537;SHT31;63013;51.104;-115.370;2023-02-28T03:23:07;20.54;31.57
74537;SHT31;63013;51.104;-115.370;2023-02-28T03:25:45;20.53;31.54
74537;SHT31;63013;51.104;-115.370;2023-02-28T03:28:33;20.51;31.52
74537;SHT31;63013;51.104;-115.370;2023-02-28T03:31:35;20.49;31.50
74537;SHT31;63013;51.104;-115.370;2023-02-28T03:34:10;20.48;31.50
74537;SHT31;63013;51.104;-115.370;2023-02-28T03:37:13;20.45;31.50
74537;SHT31;63013;51.104;-115.370;2023-02-28T03:39:56;20.43;31.51
74537;SHT31;63013;51.104;-115.370;2023-02-28T03:42:34;20.42;31.48
74537;SHT31;63013;51.104;-115.370;2023-02-28T03:45:10;20.40;31.46
74537;SHT31;63013;51.104;-115.370;2023-02-28T03:47:51;20.38;31.46
74537;SHT31;63013;51.104;-115.370;2023-02-28T03:50:43;20.36;31.40
74537;SHT31;63013;51.104;-115.370;2023-02-28T03:53:17;20.34;31.40
74537;SHT31;63013;51.104;-115.370;2023-02-28T03:56:05;20.32;31.40
74537;SHT31;63013;51.104;-115.370;2023-02-28T04:02:05;20.26;31.38
74537;SHT31;63013;51.104;-115.370;2023-02-28T04:04:33;20.24;31.38
74537;SHT31;63013;51.104;-115.370;2023-02-28T04:07:03;20.22;31.39
74537;SHT31;63013;51.104;-115.370;2023-02-28T04:09:34;20.20;31.39
74537;SHT31;63013;51.104;-115.370;2023-02-28T04:12:01;20.17;31.39
74537;SHT31;63013;51.104;-115.370;2023-02-28T04:14:29;20.16;31.39
74537;SHT31;63013;51.104;-115.370;2023-02-28T04:16:56;20.14;31.38
74537;SHT31;63013;51.104;-115.370;2023-02-28T04:19:23;20.11;31.39
74537;SHT31;63013;51.104;-115.370;2023-02-28T04:21:51;20.10;31.37
74537;SHT31;63013;51.104;-115.370;2023-02-28T04:24:20;20.09;31.34
74537;SHT31;63013;51.104;-115.370;2023-02-28T04:26:54;20.07;31.33
74537;SHT31;63013;51.104;-115.370;2023-02-28T04:29:24;20.05;31.33
74537;SHT31;63013;51.104;-115.370;2023-02-28T04:31:57;20.03;31.31
74537;SHT31;63013;51.104;-115.370;2023-02-28T04:34:27;20.01;31.31
74537;SHT31;63013;51.104;-115.370;2023-02-28T04:36:56;19.99;31.30
74537;SHT31;63013;51.104;-115.370;2023-02-28T04:39:25;19.98;31.30
74537;SHT31;63013;51.104;-115.370;2023-02-28T04:41:52;19.97;31.30
74537;SHT31;63013;51.104;-115.370;2023-02-28T04:44:19;19.95;31.26
74537;SHT31;63013;51.104;-115.370;2023-02-28T04:46:47;19.94;31.22
74537;SHT31;63013;51.104;-115.370;2023-02-28T04:49:15;19.93;31.21
74537;SHT31;63013;51.104;-115.370;2023-02-28T04:51:43;19.92;31.20
74537;SHT31;63013;51.104;-115.370;2023-02-28T04:54:10;19.91;31.20
74537;SHT31;63013;51.104;-115.370;2023-02-28T04:56:38;19.89;31.21
74537;SHT31;63013;51.104;-115.370;2023-02-28T04:59:06;19.88;31.20
74537;SHT31;63013;51.104;-115.370;2023-02-28T05:01:33;19.87;31.19
74537;SHT31;63013;51.104;-115.370;2023-02-28T05:04:02;19.85;31.18
74537;SHT31;63013;51.104;-115.370;2023-02-28T05:06:31;19.85;31.12
74537;SHT31;63013;51.104;-115.370;2023-02-28T05:09:00;19.84;31.11
74537;SHT31;63013;51.104;-115.370;2023-02-28T05:11:28;19.82;31.14
74537;SHT31;63013;51.104;-115.370;2023-02-28T05:14:01;19.80;31.12
74537;SHT31;63013;51.104;-115.370;2023-02-28T05:16:31;19.77;31.11
74537;SHT31;63013;51.104;-115.370;2023-02-28T05:18:59;19.75;31.13
74537;SHT31;63013;51.104;-115.370;2023-02-28T05:21:30;19.75;31.16
74537;SHT31;63013;51.104;-115.370;2023-02-28T05:24:12;19.73;31.11
74537;SHT31;63013;51.104;-115.370;2023-02-28T05:26:48;19.71;31.17
74537;SHT31;63013;51.104;-115.370;2023-02-28T05:29:18;19.69;31.12
74537;SHT31;63013;51.104;-115.370;2023-02-28T05:31:46;19.67;31.12
74537;SHT31;63013;51.104;-115.370;2023-02-28T05:34:13;19.66;31.19
74537;SHT31;63013;51.104;-115.370;2023-02-28T05:36:41;19.63;31.19
74537;SHT31;63013;51.104;-115.370;2023-02-28T05:39:08;19.61;31.13
74537;SHT31;63013;51.104;-115.370;2023-02-28T05:41:38;19.59;31.14
74537;SHT31;63013;51.104;-115.370;2023-02-28T05:44:07;19.57;31.13
74537;SHT31;63013;51.104;-115.370;2023-02-28T05:46:35;19.55;31.14
74537;SHT31;63013;51.104;-115.370;2023-02-28T05:49:03;19.52;31.20
74537;SHT31;63013;51.104;-115.370;2023-02-28T05:51:30;19.51;31.15
74537;SHT31;63013;51.104;-115.370;2023-02-28T05:54:00;19.48;31.10
74537;SHT31;63013;51.104;-115.370;2023-02-28T05:56:28;19.45;31.10
74537;SHT31;63013;51.104;-115.370;2023-02-28T05:58:55;19.43;31.11
74537;SHT31;63013;51.104;-115.370;2023-02-28T06:01:32;19.42;31.08
74537;SHT31;63013;51.104;-115.370;2023-02-28T06:04:03;19.38;31.13
74537;SHT31;63013;51.104;-115.370;2023-02-28T06:06:33;19.37;31.10
74537;SHT31;63013;51.104;-115.370;2023-02-28T06:09:01;19.35;31.09
74537;SHT31;63013;51.104;-115.370;2023-02-28T06:11:30;19.32;31.11
74537;SHT31;63013;51.104;-115.370;2023-02-28T06:13:58;19.31;31.12
74537;SHT31;63013;51.104;-115.370;2023-02-28T06:16:28;19.28;31.14
74537;SHT31;63013;51.104;-115.370;2023-02-28T06:18:58;19.27;31.21
74537;SHT31;63013;51.104;-115.370;2023-02-28T06:21:28;19.24;31.14
74537;SHT31;63013;51.104;-115.370;2023-02-28T06:23:56;19.22;31.25
74537;SHT31;63013;51.104;-115.370;2023-02-28T06:26:24;19.19;31.26
74537;SHT31;63013;51.104;-115.370;2023-02-28T06:28:52;19.17;31.28
74537;SHT31;63013;51.104;-115.370;2023-02-28T06:31:19;19.15;31.20
74537;SHT31;63013;51.104;-115.370;2023-02-28T06:33:47;19.12;31.23
74537;SHT31;63013;51.104;-115.370;2023-02-28T06:36:15;19.10;31.16
74537;SHT31;63013;51.104;-115.370;2023-02-28T06:38:44;19.08;31.25
74537;SHT31;63013;51.104;-115.370;2023-02-28T06:41:13;19.06;31.23
74537;SHT31;63013;51.104;-115.370;2023-02-28T06:43:41;19.03;31.24
74537;SHT31;63013;51.104;-115.370;2023-02-28T06:46:10;19.01;31.24
74537;SHT31;63013;51.104;-115.370;2023-02-28T06:48:40;18.99;31.31
74537;SHT31;63013;51.104;-115.370;2023-02-28T06:51:13;18.98;31.30
74537;SHT31;63013;51.104;-115.370;2023-02-28T06:53:45;18.95;31.34
74537;SHT31;63013;51.104;-115.370;2023-02-28T06:56:13;18.93;31.24
74537;SHT31;63013;51.104;-115.370;2023-02-28T06:58:45;18.91;31.29
74537;SHT31;63013;51.104;-115.370;2023-02-28T07:01:18;18.88;31.29
74537;SHT31;63013;51.104;-115.370;2023-02-28T07:03:48;18.86;31.32
74537;SHT31;63013;51.104;-115.370;2023-02-28T07:06:20;18.84;31.25
74537;SHT31;63013;51.104;-115.370;2023-02-28T07:08:53;18.81;31.16
74537;SHT31;63013;51.104;-115.370;2023-02-28T07:11:22;18.78;31.20
74537;SHT31;63013;51.104;-115.370;2023-02-28T07:13:54;18.78;31.15
74537;SHT31;63013;51.104;-115.370;2023-02-28T07:16:23;18.76;31.16
74537;SHT31;63013;51.104;-115.370;2023-02-28T07:18:54;18.74;31.18
74537;SHT31;63013;51.104;-115.370;2023-02-28T07:21:21;18.72;31.17
74537;SHT31;63013;51.104;-115.370;2023-02-28T07:23:48;18.70;31.17
74537;SHT31;63013;51.104;-115.370;2023-02-28T07:26:17;18.69;31.14
74537;SHT31;63013;51.104;-115.370;2023-02-28T07:28:46;18.67;31.20
74537;SHT31;63013;51.104;-115.370;2023-02-28T07:31:14;18.66;31.22
74537;SHT31;63013;51.104;-115.370;2023-02-28T07:33:43;18.63;31.17
74537;SHT31;63013;51.104;-115.370;2023-02-28T07:36:15;18.63;31.16
74537;SHT31;63013;51.104;-115.370;2023-02-28T07:38:46;18.60;31.08
74537;SHT31;63013;51.104;-115.370;2023-02-28T07:41:15;18.58;31.21
74537;SHT31;63013;51.104;-115.370;2023-02-28T07:43:45;18.56;31.22
74537;SHT31;63013;51.104;-115.370;2023-02-28T07:46:13;18.55;31.19
74537;SHT31;63013;51.104;-115.370;2023-02-28T07:48:42;18.52;31.12
74537;SHT31;63013;51.104;-115.370;2023-02-28T07:51:10;18.50;31.09
74537;SHT31;63013;51.104;-115.370;2023-02-28T07:53:38;18.48;31.06
74537;SHT31;63013;51.104;-115.370;2023-02-28T07:56:05;18.46;31.11
74537;SHT31;63013;51.104;-115.370;2023-02-28T07:58:33;18.44;31.05
74537;SHT31;63013;51.104;-115.370;2023-02-28T08:01:07;18.42;31.04
74537;SHT31;63013;51.104;-115.370;2023-02-28T08:03:36;18.40;31.19
74537;SHT31;63013;51.104;-115.370;2023-02-28T08:06:05;18.38;31.16
74537;SHT31;63013;51.104;-115.370;2023-02-28T08:08:41;18.36;31.12
74537;SHT31;63013;51.104;-115.370;2023-02-28T08:11:09;18.33;31.05
74537;SHT31;63013;51.104;-115.370;2023-02-28T08:13:36;18.31;31.11
74537;SHT31;63013;51.104;-115.370;2023-02-28T08:16:04;18.29;31.00
74537;SHT31;63013;51.104;-115.370;2023-02-28T08:18:32;18.29;31.03
74537;SHT31;63013;51.104;-115.370;2023-02-28T08:20:59;18.26;31.10
74537;SHT31;63013;51.104;-115.370;2023-02-28T08:23:32;18.25;31.04
74537;SHT31;63013;51.104;-115.370;2023-02-28T08:26:00;18.22;31.01
74537;SHT31;63013;51.104;-115.370;2023-02-28T08:28:28;18.20;31.06
74537;SHT31;63013;51.104;-115.370;2023-02-28T08:30:55;18.18;31.05
74537;SHT31;63013;51.104;-115.370;2023-02-28T08:33:22;18.17;31.06
74537;SHT31;63013;51.104;-115.370;2023-02-28T08:35:54;18.16;31.00
74537;SHT31;63013;51.104;-115.370;2023-02-28T08:38:23;18.15;31.03
74537;SHT31;63013;51.104;-115.370;2023-02-28T08:40:56;18.13;31.04
74537;SHT31;63013;51.104;-115.370;2023-02-28T08:43:25;18.11;31.04
74537;SHT31;63013;51.104;-115.370;2023-02-28T08:45:54;18.09;31.10
74537;SHT31;63013;51.104;-115.370;2023-02-28T08:48:23;18.08;31.00
74537;SHT31;63013;51.104;-115.370;2023-02-28T08:50:59;18.06;31.06
74537;SHT31;63013;51.104;-115.370;2023-02-28T08:53:30;18.05;31.04
74537;SHT31;63013;51.104;-115.370;2023-02-28T08:56:02;18.02;31.09
74537;SHT31;63013;51.104;-115.370;2023-02-28T08:58:35;18.00;31.15
74537;SHT31;63013;51.104;-115.370;2023-02-28T09:01:10;17.99;31.08
74537;SHT31;63013;51.104;-115.370;2023-02-28T09:03:41;17.96;31.08
74537;SHT31;63013;51.104;-115.370;2023-02-28T09:06:09;17.94;31.02
74537;SHT31;63013;51.104;-115.370;2023-02-28T09:08:37;17.93;30.98
74537;SHT31;63013;51.104;-115.370;2023-02-28T09:11:05;17.92;31.07
74537;SHT31;63013;51.104;-115.370;2023-02-28T09:13:32;17.90;31.03
74537;SHT31;63013;51.104;-115.370;2023-02-28T09:16:01;17.87;31.12
74537;SHT31;63013;51.104;-115.370;2023-02-28T09:18:35;17.86;31.01
74537;SHT31;63013;51.104;-115.370;2023-02-28T09:21:07;17.83;30.99
74537;SHT31;63013;51.104;-115.370;2023-02-28T09:23:39;17.82;31.03
74537;SHT31;63013;51.104;-115.370;2023-02-28T09:26:12;17.80;31.09
74537;SHT31;63013;51.104;-115.370;2023-02-28T09:28:45;17.78;31.17
74537;SHT31;63013;51.104;-115.370;2023-02-28T09:31:13;17.77;31.16
74537;SHT31;63013;51.104;-115.370;2023-02-28T09:33:46;17.75;31.08
74537;SHT31;63013;51.104;-115.370;2023-02-28T09:36:15;17.73;31.10
74537;SHT31;63013;51.104;-115.370;2023-02-28T09:38:43;17.71;31.09
74537;SHT31;63013;51.104;-115.370;2023-02-28T09:41:15;17.69;31.03
74537;SHT31;63013;51.104;-115.370;2023-02-28T09:43:57;17.68;30.93
74537;SHT31;63013;51.104;-115.370;2023-02-28T09:46:44;17.67;31.01
74537;SHT31;63013;51.104;-115.370;2023-02-28T09:49:20;17.67;31.19
74537;SHT31;63013;51.104;-115.370;2023-02-28T09:51:58;17.65;31.00
74537;SHT31;63013;51.104;-115.370;2023-02-28T09:54:39;17.63;30.99
74537;SHT31;63013;51.104;-115.370;2023-02-28T09:57:29;17.62;31.02
74537;SHT31;63013;51.104;-115.370;2023-02-28T10:00:19;17.60;30.90
74537;SHT31;63013;51.104;-115.370;2023-02-28T10:06:13;17.55;30.99
74537;SHT31;63013;51.104;-115.370;2023-02-28T10:09:03;17.52;31.17
74537;SHT31;63013;51.104;-115.370;2023-02-28T10:11:39;17.50;31.06
74537;SHT31;63013;51.104;-115.370;2023-02-28T10:16:51;17.45;31.01
74537;SHT31;63013;51.104;-115.370;2023-02-28T10:19:38;17.44;31.11
74537;SHT31;63013;51.104;-115.370;2023-02-28T10:25:39;17.38;31.08
74537;SHT31;63013;51.104;-115.370;2023-02-28T10:28:09;17.36;31.25
74537;SHT31;63013;51.104;-115.370;2023-02-28T10:30:47;17.34;31.14
74537;SHT31;63013;51.104;-115.370;2023-02-28T10:33:35;17.33;31.11
74537;SHT31;63013;51.104;-115.370;2023-02-28T10:36:03;17.30;31.16
74537;SHT31;63013;51.104;-115.370;2023-02-28T10:38:36;17.28;31.12
74537;SHT31;63013;51.104;-115.370;2023-02-28T10:44:12;17.24;31.17
74537;SHT31;63013;51.104;-115.370;2023-02-28T10:46:48;17.22;31.11
74537;SHT31;63013;51.104;-115.370;2023-02-28T10:51:53;17.19;31.25
74537;SHT31;63013;51.104;-115.370;2023-02-28T10:54:27;17.16;31.17
74537;SHT31;63013;51.104;-115.370;2023-02-28T10:57:17;17.15;31.25
74537;SHT31;63013;51.104;-115.370;2023-02-28T10:59:53;17.12;31.17
74537;SHT31;63013;51.104;-115.370;2023-02-28T11:02:47;17.09;31.17
74537;SHT31;63013;51.104;-115.370;2023-02-28T11:05:31;17.07;31.14
74537;SHT31;63013;51.104;-115.370;2023-02-28T11:10:44;17.04;31.18
74537;SHT31;63013;51.104;-115.370;2023-02-28T11:13:24;17.01;31.30
74537;SHT31;63013;51.104;-115.370;2023-02-28T11:16:04;17.00;31.35
74537;SHT31;63013;51.104;-115.370;2023-02-28T11:18:38;16.98;31.38
74537;SHT31;63013;51.104;-115.370;2023-02-28T11:21:20;16.97;31.32
74537;SHT31;63013;51.104;-115.370;2023-02-28T11:24:04;16.96;31.22
74537;SHT31;63013;51.104;-115.370;2023-02-28T11:26:48;16.94;31.25
74537;SHT31;63013;51.104;-115.370;2023-02-28T11:29:17;16.92;31.33
74537;SHT31;63013;51.104;-115.370;2023-02-28T11:34:47;16.89;31.20
74537;SHT31;63013;51.104;-115.370;2023-02-28T11:37:39;16.86;31.38
74537;SHT31;63013;51.104;-115.370;2023-02-28T11:40:13;16.86;31.31
74537;SHT31;63013;51.104;-115.370;2023-02-28T11:45:39;16.80;31.49
74537;SHT31;63013;51.104;-115.370;2023-02-28T11:52:02;16.75;31.21
74537;SHT31;63013;51.104;-115.370;2023-02-28T11:58:05;16.71;31.60
74537;SHT31;63013;51.104;-115.370;2023-02-28T12:03:56;16.67;31.40
74537;SHT31;63013;51.104;-115.370;2023-02-28T12:07:09;16.64;31.44
74537;SHT31;63013;51.104;-115.370;2023-02-28T12:09:56;16.62;31.46
74537;SHT31;63013;51.104;-115.370;2023-02-28T12:15:37;16.59;31.23
74537;SHT31;63013;51.104;-115.370;2023-02-28T12:21:05;16.59;30.91
74537;SHT31;63013;51.104;-115.370;2023-02-28T12:23:57;16.59;30.86
74537;SHT31;63013;51.104;-115.370;2023-02-28T12:26:39;16.60;30.91
74537;SHT31;63013;51.104;-115.370;2023-02-28T12:34:39;16.57;31.23
74537;SHT31;63013;51.104;-115.370;2023-02-28T12:37:28;16.54;31.33
74537;SHT31;63013;51.104;-115.370;2023-02-28T12:40:27;16.53;31.33
74537;SHT31;63013;51.104;-115.370;2023-02-28T12:43:27;16.52;31.30
74537;SHT31;63013;51.104;-115.370;2023-02-28T12:46:13;16.49;31.17
74537;SHT31;63013;51.104;-115.370;2023-02-28T12:48:46;16.48;31.05
74537;SHT31;63013;51.104;-115.370;2023-02-28T12:51:22;16.48;30.95
74537;SHT31;63013;51.104;-115.370;2023-02-28T12:54:04;16.50;30.90
74537;SHT31;63013;51.104;-115.370;2023-02-28T12:57:19;16.50;30.90
74537;SHT31;63013;51.104;-115.370;2023-02-28T13:00:24;16.50;30.89
74537;SHT31;63013;51.104;-115.370;2023-02-28T13:09:44;16.47;31.17
74537;SHT31;63013;51.104;-115.370;2023-02-28T13:12:23;16.46;31.32
74537;SHT31;63013;51.104;-115.370;2023-02-28T13:15:01;16.45;31.40
74537;SHT31;63013;51.104;-115.370;2023-02-28T13:17:50;16.44;31.16
74537;SHT31;63013;51.104;-115.370;2023-02-28T13:20:37;16.44;31.04
74537;SHT31;63013;51.104;-115.370;2023-02-28T13:24:35;16.43;30.95
74537;SHT31;63013;51.104;-115.370;2023-02-28T13:29:36;16.46;30.91
74537;SHT31;63013;51.104;-115.370;2023-02-28T13:34:38;16.50;30.90
74537;SHT31;63013;51.104;-115.370;2023-02-28T13:42:23;16.59;30.89
74537;SHT31;63013;51.104;-115.370;2023-02-28T13:58:43;16.78;30.91
74537;SHT31;63013;51.104;-115.370;2023-02-28T14:04:30;16.86;30.96
74537;SHT31;63013;51.104;-115.370;2023-02-28T14:07:48;16.91;30.97
74537;SHT31;63013;51.104;-115.370;2023-02-28T14:16:10;17.04;31.01
74537;SHT31;63013;51.104;-115.370;2023-02-28T14:18:58;17.08;31.04
74537;SHT31;63013;51.104;-115.370;2023-02-28T14:21:32;17.13;31.27
74537;SHT31;63013;51.104;-115.370;2023-02-28T14:27:33;17.20;31.50
74537;SHT31;63013;51.104;-115.370;2023-02-28T14:30:40;17.25;31.54
74537;SHT31;63013;51.104;-115.370;2023-02-28T14:36:46;17.35;31.79
74537;SHT31;63013;51.104;-115.370;2023-02-28T14:39:16;17.39;31.87
74537;SHT31;63013;51.104;-115.370;2023-02-28T14:41:51;17.43;31.90
74537;SHT31;63013;51.104;-115.370;2023-02-28T14:44:21;17.47;31.95
74537;SHT31;63013;51.104;-115.370;2023-02-28T14:47:00;17.51;31.96
74537;SHT31;63013;51.104;-115.370;2023-02-28T14:49:37;17.57;31.99
74537;SHT31;63013;51.104;-115.370;2023-02-28T14:54:53;17.66;31.99
74537;SHT31;63013;51.104;-115.370;2023-02-28T14:57:32;17.71;32.00
74537;SHT31;63013;51.104;-115.370;2023-02-28T15:02:52;17.82;32.00
74537;SHT31;63013;51.104;-115.370;2023-02-28T15:05:26;17.87;32.01
74537;SHT31;63013;51.104;-115.370;2023-02-28T15:08:01;17.92;32.00
74537;SHT31;63013;51.104;-115.370;2023-02-28T15:10:53;17.97;32.07
74537;SHT31;63013;51.104;-115.370;2023-02-28T15:13:35;18.01;32.06
74537;SHT31;63013;51.104;-115.370;2023-02-28T15:16:30;18.06;32.05
74537;SHT31;63013;51.104;-115.370;2023-02-28T15:19:05;18.11;32.00
74537;SHT31;63013;51.104;-115.370;2023-02-28T15:21:40;18.16;31.99
74537;SHT31;63013;51.104;-115.370;2023-02-28T15:24:33;18.22;31.97
74537;SHT31;63013;51.104;-115.370;2023-02-28T15:27:11;18.27;32.16
74537;SHT31;63013;51.104;-115.370;2023-02-28T15:29:51;18.34;32.28
74537;SHT31;63013;51.104;-115.370;2023-02-28T15:35:18;18.47;32.54
74537;SHT31;63013;51.104;-115.370;2023-02-28T15:38:01;18.55;32.68
74537;SHT31;63013;51.104;-115.370;2023-02-28T15:40:52;18.64;32.73
74537;SHT31;63013;51.104;-115.370;2023-02-28T15:45:55;18.76;32.81
74537;SHT31;63013;51.104;-115.370;2023-02-28T15:48:34;18.83;32.83
74537;SHT31;63013;51.104;-115.370;2023-02-28T15:51:34;18.89;32.87
74537;SHT31;63013;51.104;-115.370;2023-02-28T15:54:07;18.95;32.89
74537;SHT31;63013;51.104;-115.370;2023-02-28T15:56:44;19.01;32.89
74537;SHT31;63013;51.104;-115.370;2023-02-28T15:59:24;19.06;32.90
74537;SHT31;63013;51.104;-115.370;2023-02-28T16:07:39;19.25;32.89
74537;SHT31;63013;51.104;-115.370;2023-02-28T16:10:09;19.30;32.87
74537;SHT31;63013;51.104;-115.370;2023-02-28T16:12:39;19.34;32.85
74537;SHT31;63013;51.104;-115.370;2023-02-28T16:15:28;19.41;32.82
74537;SHT31;63013;51.104;-115.370;2023-02-28T16:18:01;19.47;32.79
74537;SHT31;63013;51.104;-115.370;2023-02-28T16:20:28;19.52;32.72
74537;SHT31;63013;51.104;-115.370;2023-02-28T16:22:57;19.55;32.71
74537;SHT31;63013;51.104;-115.370;2023-02-28T16:25:38;19.54;32.70
74537;SHT31;63013;51.104;-115.370;2023-02-28T16:28:26;19.54;32.72
74537;SHT31;63013;51.104;-115.370;2023-02-28T16:31:02;19.53;32.76
74537;SHT31;63013;51.104;-115.370;2023-02-28T16:33:33;19.54;32.79
74537;SHT31;63013;51.104;-115.370;2023-02-28T16:36:00;19.55;32.77
74537;SHT31;63013;51.104;-115.370;2023-02-28T16:38:28;19.57;32.77
74537;SHT31;63013;51.104;-115.370;2023-02-28T16:40:56;19.59;32.78
74537;SHT31;63013;51.104;-115.370;2023-02-28T16:43:26;19.62;32.75
74537;SHT31;63013;51.104;-115.370;2023-02-28T16:45:55;19.65;32.70
74537;SHT31;63013;51.104;-115.370;2023-02-28T16:48:24;19.69;32.70
74537;SHT31;63013;51.104;-115.370;2023-02-28T16:50:51;19.73;32.69
74537;SHT31;63013;51.104;-115.370;2023-02-28T16:53:19;19.76;32.67
74537;SHT31;63013;51.104;-115.370;2023-02-28T16:55:46;19.80;32.62
74537;SHT31;63013;51.104;-115.370;2023-02-28T16:58:14;19.84;32.61
74537;SHT31;63013;51.104;-115.370;2023-02-28T17:00:42;19.87;32.59
74537;SHT31;63013;51.104;-115.370;2023-02-28T17:03:19;19.89;32.55
74537;SHT31;63013;51.104;-115.370;2023-02-28T17:05:53;19.91;32.50
74537;SHT31;63013;51.104;-115.370;2023-02-28T17:08:20;19.91;32.50
74537;SHT31;63013;51.104;-115.370;2023-02-28T17:10:48;19.90;32.50
74537;SHT31;63013;51.104;-115.370;2023-02-28T17:13:15;19.89;32.51
74537;SHT31;63013;51.104;-115.370;2023-02-28T17:15:42;19.89;32.50
74537;SHT31;63013;51.104;-115.370;2023-02-28T17:18:14;19.90;32.51
74537;SHT31;63013;51.104;-115.370;2023-02-28T17:20:44;19.91;32.55
74537;SHT31;63013;51.104;-115.370;2023-02-28T17:23:12;19.93;32.50
74537;SHT31;63013;51.104;-115.370;2023-02-28T17:25:40;19.95;32.52
74537;SHT31;63013;51.104;-115.370;2023-02-28T17:28:19;19.96;32.50
74537;SHT31;63013;51.104;-115.370;2023-02-28T17:30:47;19.99;32.50
74537;SHT31;63013;51.104;-115.370;2023-02-28T17:33:15;20.01;32.45
74537;SHT31;63013;51.104;-115.370;2023-02-28T17:35:42;20.02;32.40
74537;SHT31;63013;51.104;-115.370;2023-02-28T17:38:14;20.03;32.40
74537;SHT31;63013;51.104;-115.370;2023-02-28T17:40:44;20.01;32.40
74537;SHT31;63013;51.104;-115.370;2023-02-28T17:43:12;20.00;32.40
74537;SHT31;63013;51.104;-115.370;2023-02-28T17:45:40;20.00;32.40